Time;durP1;ratioP1;P1;durP2;ratioP2;P2;SDS_P1;SDS_P2;PMS_P1;PMS_P2;Temp;Humidity;BMP_temperature;BMP_pressure;BME280_temperature;BME280_humidity;BME280_pressure;Samples;Min_cycle;Max_cycle;Signal;HPM_P1;HPM_P2
2020/12/13 00:02:22;;;;;;;90.13;50.20;;;7.70;99.90;;;;;;4939005;29;20032;-82
2020/12/13 00:04:47;;;;;;;87.65;48.67;;;7.80;99.90;;;;;;4919981;29;20067;-84
2020/12/13 00:07:14;;;;;;;80.78;46.35;;;7.80;99.90;;;;;;4917070;29;20027;-84
2020/12/13 00:09:40;;;;;;;148.73;65.80;;;7.90;99.90;;;;;;4910956;29;20044;-86
2020/12/13 00:12:06;;;;;;;116.35;56.85;;;7.90;99.90;;;;;;4918368;29;20039;-85
2020/12/13 00:14:38;;;;;;;78.30;44.60;;;7.70;99.90;;;;;;4946196;29;20011;-90
2020/12/13 00:17:10;;;;;;;88.65;48.38;;;7.80;99.90;;;;;;4930498;29;20024;-86
2020/12/13 00:19:36;;;;;;;141.88;62.88;;;7.80;99.90;;;;;;4924817;29;20044;-85
2020/12/13 00:22:12;;;;;;;161.27;68.35;;;7.80;99.90;;;;;;4941069;29;20024;-85
2020/12/13 00:24:43;;;;;;;85.40;46.25;;;7.70;99.90;;;;;;4932335;29;20083;-86
2020/12/13 00:27:23;;;;;;;147.77;65.25;;;7.80;99.90;;;;;;4953038;29;20024;-85
2020/12/13 00:29:48;;;;;;;76.50;43.75;;;7.80;99.90;;;;;;4909378;29;20031;-85
2020/12/13 00:32:14;;;;;;;73.18;41.33;;;7.80;99.90;;;;;;4928830;29;20027;-86
2020/12/13 00:34:40;;;;;;;93.30;48.33;;;7.90;99.90;;;;;;4943870;29;20035;-85
2020/12/13 00:37:07;;;;;;;84.95;46.63;;;8.00;99.90;;;;;;4921403;29;20032;-84
2020/12/13 00:39:34;;;;;;;155.32;67.68;;;8.10;99.90;;;;;;4937191;29;20040;-84
2020/12/13 00:42:01;;;;;;;85.30;44.55;;;8.00;99.90;;;;;;4926476;29;20026;-85
2020/12/13 00:44:32;;;;;;;69.95;41.30;;;8.10;99.90;;;;;;4931313;29;20043;-86
2020/12/13 00:49:49;;;;;;;70.38;40.33;;;8.20;99.90;;;;;;4950066;23;20059;-84
2020/12/13 00:52:15;;;;;;;70.22;41.17;;;8.10;99.90;;;;;;4911822;29;20056;-85
2020/12/13 00:54:46;;;;;;;73.28;42.35;;;8.20;99.90;;;;;;4912513;29;20047;-85
2020/12/13 00:57:59;;;;;;;75.60;42.22;;;8.20;99.90;;;;;;4928771;29;20059;-85
2020/12/13 01:00:22;;;;;;;78.00;44.42;;;8.20;99.90;;;;;;4906344;29;20037;-85
2020/12/13 01:02:47;;;;;;;79.00;41.65;;;8.10;99.90;;;;;;4907839;29;20045;-87
2020/12/13 01:05:16;;;;;;;71.68;41.65;;;8.20;99.90;;;;;;4876247;29;20044;-88
2020/12/13 01:08:01;;;;;;;71.20;41.15;;;8.20;99.90;;;;;;4889695;29;20037;-87
2020/12/13 01:10:27;;;;;;;;;;;8.30;99.90;;;;;;4885629;29;20029;-86
2020/12/13 01:12:52;;;;;;;71.13;40.30;;;8.30;99.90;;;;;;4900338;29;19936;-85
2020/12/13 01:15:25;;;;;;;66.00;39.47;;;8.20;99.90;;;;;;4890689;29;20052;-85
2020/12/13 01:17:53;;;;;;;69.35;40.97;;;8.00;99.90;;;;;;4891436;29;20025;-84
2020/12/13 01:20:20;;;;;;;70.32;40.10;;;8.00;99.90;;;;;;4875819;29;20127;-86
2020/12/13 01:22:46;;;;;;;68.32;38.67;;;8.00;99.90;;;;;;4902007;29;20032;-85
2020/12/13 01:25:12;;;;;;;69.82;40.95;;;8.00;99.90;;;;;;4885267;29;20088;-86
2020/12/13 01:27:38;;;;;;;106.82;56.33;;;8.10;99.90;;;;;;4905681;29;20152;-86
2020/12/13 01:30:08;;;;;;;70.28;40.95;;;8.00;99.90;;;;;;4890974;29;20049;-89
2020/12/13 01:32:41;;;;;;;92.95;48.13;;;8.00;99.90;;;;;;4906673;29;20076;-86
2020/12/13 01:35:09;;;;;;;122.45;58.90;;;8.00;99.90;;;;;;4875021;29;20025;-85
2020/12/13 01:37:38;;;;;;;71.70;40.38;;;8.00;99.90;;;;;;4885209;29;20021;-87
2020/12/13 01:40:08;;;;;;;64.80;40.20;;;8.00;99.90;;;;;;4881240;29;20041;-85
2020/12/13 01:42:42;;;;;;;71.40;42.85;;;8.00;99.90;;;;;;4866255;29;20025;-85
2020/12/13 01:45:12;;;;;;;65.28;38.20;;;8.00;99.90;;;;;;4918596;29;20055;-85
2020/12/13 01:47:40;;;;;;;72.65;39.00;;;8.10;99.90;;;;;;4906938;29;20429;-85
2020/12/13 01:50:11;;;;;;;61.58;38.03;;;8.10;99.90;;;;;;4937886;29;20050;-86
2020/12/13 01:52:44;;;;;;;60.25;37.03;;;8.20;99.90;;;;;;4891443;29;20055;-86
2020/12/13 01:55:11;;;;;;;67.20;38.63;;;8.00;99.90;;;;;;4906228;29;20091;-86
2020/12/13 01:57:55;;;;;;;72.30;40.22;;;7.90;99.90;;;;;;4886846;29;20024;-88
2020/12/13 02:00:23;;;;;;;64.07;37.58;;;7.90;99.90;;;;;;4905947;29;20032;-84
2020/12/13 02:03:00;;;;;;;62.15;37.53;;;7.80;99.90;;;;;;4907644;29;20541;-87
2020/12/13 02:05:29;;;;;;;65.55;38.00;;;7.80;99.90;;;;;;4922368;29;20027;-86
2020/12/13 02:07:59;;;;;;;63.17;37.28;;;7.80;99.90;;;;;;4903643;29;20076;-85
2020/12/13 02:10:26;;;;;;;60.85;34.85;;;7.80;99.90;;;;;;4903303;29;20345;-85
2020/12/13 02:12:51;;;;;;;63.70;36.20;;;7.80;99.90;;;;;;4919825;29;20024;-86
2020/12/13 02:15:18;;;;;;;58.78;33.92;;;7.70;99.90;;;;;;4887349;29;20032;-86
2020/12/13 02:17:44;;;;;;;54.25;32.13;;;7.50;99.90;;;;;;4902974;29;20036;-86
2020/12/13 02:20:13;;;;;;;53.72;33.00;;;7.50;99.90;;;;;;4887115;29;20039;-85
2020/12/13 02:22:46;;;;;;;91.85;44.20;;;7.50;99.90;;;;;;4902854;29;20438;-84
2020/12/13 02:25:15;;;;;;;53.20;31.75;;;7.50;99.90;;;;;;4903392;29;20103;-84
2020/12/13 02:27:42;;;;;;;81.75;40.85;;;7.50;99.90;;;;;;4902917;29;20087;-84
2020/12/13 02:30:08;;;;;;;43.83;28.85;;;7.40;99.90;;;;;;4902375;29;20024;-87
2020/12/13 02:32:34;;;;;;;191.88;53.15;;;7.40;99.90;;;;;;4902963;29;20438;-86
2020/12/13 02:35:00;;;;;;;51.88;25.05;;;7.30;99.90;;;;;;4917997;29;20028;-84
2020/12/13 02:37:27;;;;;;;52.50;24.98;;;7.20;99.90;;;;;;4935840;29;20035;-86
2020/12/13 02:39:53;;;;;;;48.63;27.58;;;7.10;99.90;;;;;;4891139;29;20040;-86
2020/12/13 02:42:19;;;;;;;51.90;26.73;;;7.10;99.90;;;;;;4920055;29;20123;-85
2020/12/13 02:44:45;;;;;;;46.00;26.88;;;7.10;99.90;;;;;;4918416;29;20454;-84
2020/12/13 02:47:17;;;;;;;47.05;26.60;;;7.10;99.90;;;;;;4886886;29;20119;-85
2020/12/13 02:49:43;;;;;;;46.25;26.23;;;7.00;99.90;;;;;;4902510;29;20052;-85
2020/12/13 02:52:09;;;;;;;59.97;29.30;;;7.10;99.90;;;;;;4920895;29;20024;-90
2020/12/13 02:54:36;;;;;;;61.22;27.67;;;7.10;99.90;;;;;;4887090;29;20028;-87
2020/12/13 02:57:02;;;;;;;76.07;27.63;;;7.00;99.90;;;;;;4902234;29;20099;-85
2020/12/13 02:59:28;;;;;;;72.03;25.73;;;7.00;99.90;;;;;;4886501;29;20037;-86
2020/12/13 03:01:55;;;;;;;56.60;26.35;;;6.90;99.90;;;;;;4887005;29;20127;-85
2020/12/13 03:04:20;;;;;;;56.05;25.98;;;6.90;99.90;;;;;;4886994;29;20032;-83
2020/12/13 03:06:46;;;;;;;62.97;25.60;;;6.90;99.90;;;;;;4886660;29;20075;-86
2020/12/13 03:09:12;;;;;;;79.05;26.13;;;6.90;99.90;;;;;;4902089;29;20041;-86
2020/12/13 03:11:37;;;;;;;72.18;25.58;;;7.00;99.90;;;;;;4886325;29;20123;-84
2020/12/13 03:14:03;;;;;;;77.50;24.77;;;7.00;99.90;;;;;;4886460;29;20081;-84
2020/12/13 03:16:29;;;;;;;83.45;25.23;;;6.80;99.90;;;;;;4901907;29;20028;-85
2020/12/13 03:18:57;;;;;;;81.50;25.20;;;6.80;99.90;;;;;;4918021;29;20027;-86
2020/12/13 03:21:22;;;;;;;87.78;24.27;;;6.70;99.90;;;;;;4902215;29;20215;-85
2020/12/13 03:23:48;;;;;;;148.35;30.02;;;6.70;99.90;;;;;;4901341;29;20463;-86
2020/12/13 03:26:14;;;;;;;57.00;25.42;;;6.60;99.90;;;;;;4886024;29;20130;-86
2020/12/13 03:28:39;;;;;;;48.05;24.38;;;6.70;99.90;;;;;;4885948;29;20024;-84
2020/12/13 03:31:05;;;;;;;57.53;26.10;;;6.70;99.90;;;;;;4901707;29;20036;-86
2020/12/13 03:33:31;;;;;;;42.95;25.40;;;6.80;99.90;;;;;;4886204;29;20032;-86
2020/12/13 03:35:56;;;;;;;39.90;22.35;;;6.80;99.90;;;;;;4902306;29;20031;-85
2020/12/13 03:38:22;;;;;;;60.20;25.30;;;6.90;99.90;;;;;;4886810;29;20052;-86
2020/12/13 03:40:49;;;;;;;41.10;22.58;;;6.90;99.90;;;;;;4886956;29;20080;-86
2020/12/13 03:43:15;;;;;;;40.45;21.55;;;6.90;99.90;;;;;;4886765;29;20123;-86
2020/12/13 03:45:40;;;;;;;39.58;20.55;;;6.90;99.90;;;;;;4903124;29;20505;-86
2020/12/13 03:48:06;;;;;;;215.45;43.28;;;7.00;99.90;;;;;;4885660;29;20056;-86
2020/12/13 03:50:38;;;;;;;39.83;21.15;;;6.90;99.90;;;;;;4901075;29;20028;-85
2020/12/13 03:53:09;;;;;;;34.10;22.15;;;6.90;99.90;;;;;;4886468;29;20032;-86
2020/12/13 03:55:35;;;;;;;37.70;22.95;;;7.00;99.90;;;;;;4900643;29;20028;-86
2020/12/13 03:58:01;;;;;;;184.00;48.25;;;7.10;99.90;;;;;;4901054;29;20031;-86
2020/12/13 04:00:28;;;;;;;34.42;22.98;;;7.10;99.90;;;;;;4885454;29;20036;-85
2020/12/13 04:02:54;;;;;;;34.63;21.75;;;7.10;99.90;;;;;;4900871;29;20032;-86
2020/12/13 04:05:24;;;;;;;35.40;22.60;;;7.20;99.90;;;;;;4900876;29;20063;-86
2020/12/13 04:07:50;;;;;;;37.13;22.13;;;7.20;99.90;;;;;;4900853;29;20529;-85
2020/12/13 04:10:17;;;;;;;36.58;22.73;;;7.20;99.90;;;;;;4900761;29;20497;-86
2020/12/13 04:12:43;;;;;;;33.78;21.65;;;7.30;99.90;;;;;;4901134;29;20025;-86
2020/12/13 04:15:09;;;;;;;36.38;23.48;;;7.30;99.90;;;;;;4884971;29;20491;-85
2020/12/13 04:17:35;;;;;;;30.17;21.38;;;7.00;99.90;;;;;;4885186;29;20121;-84
2020/12/13 04:20:01;;;;;;;67.82;33.78;;;7.10;99.90;;;;;;4900472;29;20140;-86
2020/12/13 04:22:27;;;;;;;61.80;33.60;;;7.20;99.90;;;;;;4900563;29;20067;-86
2020/12/13 04:24:52;;;;;;;42.25;27.55;;;7.20;99.90;;;;;;4885706;29;20381;-84
2020/12/13 04:27:18;;;;;;;38.40;25.27;;;7.20;99.90;;;;;;4900661;29;20030;-91
2020/12/13 04:29:44;;;;;;;38.13;24.45;;;7.20;99.90;;;;;;4885038;29;20032;-86
2020/12/13 04:32:10;;;;;;;76.55;40.60;;;7.30;99.90;;;;;;4884912;29;20056;-84
2020/12/13 04:34:36;;;;;;;43.13;26.80;;;7.00;99.90;;;;;;4917531;29;20024;-86
2020/12/13 04:37:02;;;;;;;47.35;29.10;;;7.10;99.90;;;;;;4903700;29;20419;-86
2020/12/13 04:39:28;;;;;;;67.40;34.90;;;7.20;99.90;;;;;;4917387;29;20038;-86
2020/12/13 04:41:54;;;;;;;50.80;29.20;;;7.30;99.90;;;;;;4900220;29;20062;-86
2020/12/13 04:44:20;;;;;;;93.20;42.53;;;7.30;99.90;;;;;;4900746;29;20059;-87
2020/12/13 04:46:46;;;;;;;78.97;38.60;;;7.40;99.90;;;;;;4900365;29;20042;-83
2020/12/13 04:49:13;;;;;;;48.22;28.73;;;7.10;99.90;;;;;;4884935;29;20107;-83
2020/12/13 04:51:42;;;;;;;53.13;30.10;;;7.30;99.90;;;;;;4916446;29;20048;-84
2020/12/13 04:54:08;;;;;;;65.65;33.45;;;7.30;99.90;;;;;;4900710;29;20457;-85
2020/12/13 04:56:37;;;;;;;54.50;30.67;;;7.10;99.90;;;;;;4884752;29;20059;-86
2020/12/13 04:59:04;;;;;;;77.40;38.25;;;7.20;99.90;;;;;;4900527;29;20111;-85
2020/12/13 05:01:30;;;;;;;69.88;35.00;;;7.30;99.90;;;;;;4916684;29;20462;-84
2020/12/13 05:03:56;;;;;;;46.90;25.70;;;7.20;99.90;;;;;;4900672;29;20032;-85
2020/12/13 05:06:24;;;;;;;51.47;29.05;;;7.30;99.90;;;;;;4900559;29;20481;-91
2020/12/13 05:08:51;;;;;;;60.25;32.35;;;7.20;99.90;;;;;;4925291;29;20478;-84
2020/12/13 05:11:17;;;;;;;89.95;40.78;;;7.20;99.90;;;;;;4904918;29;20035;-84
2020/12/13 05:13:43;;;;;;;45.63;27.98;;;7.20;99.90;;;;;;4906307;29;20028;-86
2020/12/13 05:16:10;;;;;;;43.03;27.10;;;7.40;99.90;;;;;;4922593;29;20358;-86
2020/12/13 05:18:40;;;;;;;103.28;46.03;;;7.30;99.90;;;;;;4917679;29;20028;-86
2020/12/13 05:21:06;;;;;;;88.00;41.72;;;7.30;99.90;;;;;;4900030;29;20032;-84
2020/12/13 05:23:32;;;;;;;91.35;43.33;;;7.10;99.90;;;;;;4899981;29;20347;-85
2020/12/13 05:25:58;;;;;;;83.32;41.95;;;7.10;99.90;;;;;;4900249;29;20161;-85
2020/12/13 05:28:24;;;;;;;55.42;32.47;;;7.00;99.90;;;;;;4885670;29;20089;-90
2020/12/13 05:30:51;;;;;;;106.03;47.55;;;7.00;99.90;;;;;;4886399;29;20067;-85
2020/12/13 05:35:47;;;;;;;65.47;36.80;;;7.20;99.90;;;;;;4920467;29;20028;-85
2020/12/13 05:38:16;;;;;;;50.38;30.13;;;7.20;99.90;;;;;;4888164;29;20520;-84
2020/12/13 05:40:42;;;;;;;53.20;31.52;;;7.20;99.90;;;;;;4903623;29;20040;-86
2020/12/13 05:43:20;;;;;;;61.53;33.75;;;7.20;99.90;;;;;;4887792;29;20028;-84
2020/12/13 05:49:00;;;;;;;89.03;43.08;;;7.30;99.90;;;;;;4904650;29;20104;-86
2020/12/13 05:51:21;;;;;;;142.02;58.58;;;7.30;99.90;;;;;;4905611;29;20040;-86
2020/12/13 05:53:47;;;;;;;75.68;39.80;;;7.30;99.90;;;;;;4923858;29;20020;-85
2020/12/13 05:56:13;;;;;;;65.88;35.13;;;7.20;99.90;;;;;;4923278;29;20036;-85
2020/12/13 05:58:39;;;;;;;56.60;32.90;;;7.20;99.90;;;;;;4920625;29;20029;-87
2020/12/13 06:01:05;;;;;;;75.18;40.22;;;7.30;99.90;;;;;;4903715;29;20046;-85
2020/12/13 06:03:39;;;;;;;78.47;40.88;;;7.30;99.90;;;;;;4887775;29;20035;-85
2020/12/13 06:06:10;;;;;;;101.93;45.28;;;7.20;99.90;;;;;;4903476;29;20123;-85
2020/12/13 06:08:55;;;;;;;51.10;29.52;;;7.20;99.90;;;;;;4903105;29;20082;-86
2020/12/13 06:11:26;;;;;;;56.45;31.55;;;7.30;99.90;;;;;;4904940;29;20028;-86
2020/12/13 06:14:05;;;;;;;62.95;33.72;;;7.40;99.90;;;;;;4921716;29;20533;-87
2020/12/13 06:16:33;;;;;;;81.10;39.05;;;7.40;99.90;;;;;;4905250;29;20024;-87
2020/12/13 06:18:59;;;;;;;65.15;32.92;;;7.30;99.90;;;;;;4920316;29;20064;-85
2020/12/13 06:21:24;;;;;;;65.03;35.25;;;7.20;99.90;;;;;;4888023;29;20092;-88
2020/12/13 06:23:53;;;;;;;66.85;34.08;;;7.20;99.90;;;;;;4902820;29;20028;-85
2020/12/13 06:26:19;;;;;;;47.10;28.35;;;7.40;99.90;;;;;;4903638;29;20366;-86
2020/12/13 06:28:45;;;;;;;65.05;32.50;;;7.50;99.90;;;;;;4903437;29;20027;-86
2020/12/13 06:31:15;;;;;;;46.88;28.02;;;7.40;99.90;;;;;;4903623;29;20032;-86
2020/12/13 06:33:41;;;;;;;56.75;30.80;;;7.40;99.90;;;;;;4903410;29;20123;-85
2020/12/13 06:36:08;;;;;;;41.35;25.40;;;7.40;99.90;;;;;;4903513;29;20489;-85
2020/12/13 06:38:35;;;;;;;40.97;24.80;;;7.50;99.90;;;;;;4920430;29;20036;-85
2020/12/13 06:41:07;;;;;;;40.17;24.83;;;7.60;99.90;;;;;;4904325;29;20451;-84
2020/12/13 06:43:50;;;;;;;63.67;34.90;;;7.60;99.90;;;;;;4912241;29;20119;-86
2020/12/13 06:46:17;;;;;;;75.70;36.25;;;7.60;99.90;;;;;;4918828;29;20030;-86
2020/12/13 06:48:43;;;;;;;61.25;32.03;;;7.60;99.90;;;;;;4919031;29;20081;-85
2020/12/13 06:51:10;;;;;;;51.60;29.85;;;7.60;99.90;;;;;;4935819;29;20031;-85
2020/12/13 06:53:37;;;;;;;47.88;29.05;;;7.50;99.90;;;;;;4916781;29;20032;-86
2020/12/13 06:56:12;;;;;;;44.03;26.77;;;7.50;99.90;;;;;;4916155;29;20024;-85
2020/12/13 06:58:47;;;;;;;64.72;33.80;;;7.50;99.90;;;;;;4921347;29;20107;-88
2020/12/13 07:01:18;;;;;;;73.97;35.90;;;7.50;99.90;;;;;;4925054;29;20100;-87
2020/12/13 07:03:45;;;;;;;47.25;28.00;;;7.50;99.90;;;;;;4924827;29;20059;-87
2020/12/13 07:06:31;;;;;;;47.92;27.77;;;7.60;99.90;;;;;;4934081;29;20056;-85
2020/12/13 07:09:06;;;;;;;42.78;26.20;;;7.80;99.90;;;;;;4927187;29;20056;-85
2020/12/13 07:11:33;;;;;;;71.25;36.55;;;7.80;99.90;;;;;;4932497;29;20035;-86
2020/12/13 07:14:07;;;;;;;47.30;28.02;;;7.70;99.90;;;;;;4923371;29;20032;-85
2020/12/13 07:16:39;;;;;;;42.60;27.55;;;7.70;99.90;;;;;;4923813;29;20056;-91
2020/12/13 07:19:11;;;;;;;43.50;26.90;;;7.80;99.90;;;;;;4907788;29;20032;-85
2020/12/13 07:21:38;;;;;;;66.35;32.28;;;7.90;99.90;;;;;;4930774;29;20051;-86
2020/12/13 07:24:05;;;;;;;43.90;24.95;;;7.80;99.90;;;;;;4918038;29;20241;-85
2020/12/13 07:26:33;;;;;;;46.70;25.52;;;7.80;99.90;;;;;;4923748;29;20027;-86
2020/12/13 07:29:00;;;;;;;41.63;24.92;;;7.90;99.90;;;;;;4940332;29;20018;-86
2020/12/13 07:31:35;;;;;;;49.28;28.63;;;7.80;99.90;;;;;;4908319;29;20057;-85
2020/12/13 07:34:02;;;;;;;41.85;25.25;;;7.80;99.90;;;;;;4907595;29;20060;-86
2020/12/13 07:36:28;;;;;;;40.22;25.38;;;7.80;99.90;;;;;;4918949;29;20024;-84
2020/12/13 07:38:53;;;;;;;50.45;28.00;;;7.80;99.90;;;;;;4899254;29;20387;-85
2020/12/13 07:41:21;;;;;;;39.85;23.25;;;7.80;99.90;;;;;;4931058;29;20051;-86
2020/12/13 07:44:07;;;;;;;37.65;22.75;;;7.70;99.90;;;;;;4923269;29;20024;-84
2020/12/13 07:46:34;;;;;;;67.07;31.98;;;7.70;99.90;;;;;;4931555;29;20028;-86
2020/12/13 07:49:05;;;;;;;49.47;26.50;;;7.70;99.90;;;;;;4902886;29;20095;-86
2020/12/13 07:51:33;;;;;;;49.08;26.38;;;7.80;99.90;;;;;;4901538;29;20028;-85
2020/12/13 07:54:14;;;;;;;33.15;20.55;;;7.80;99.90;;;;;;4884492;29;20100;-86
2020/12/13 07:56:41;;;;;;;41.10;22.45;;;7.90;99.90;;;;;;4901158;29;20024;-87
2020/12/13 07:59:12;;;;;;;54.22;27.95;;;7.70;99.90;;;;;;4917882;29;20036;-86
2020/12/13 08:01:39;;;;;;;40.05;21.65;;;7.60;99.90;;;;;;4917599;29;20020;-89
2020/12/13 08:04:05;;;;;;;58.05;26.70;;;7.60;99.90;;;;;;4884860;29;20036;-86
2020/12/13 08:06:31;;;;;;;46.50;25.60;;;7.50;99.90;;;;;;4901145;29;20071;-85
2020/12/13 08:08:56;;;;;;;33.78;21.25;;;7.60;99.90;;;;;;4901126;29;20107;-85
2020/12/13 08:11:23;;;;;;;55.00;25.73;;;7.50;99.90;;;;;;4888879;29;20122;-85
2020/12/13 08:13:53;;;;;;;65.90;30.25;;;7.50;99.90;;;;;;4919383;29;20052;-86
2020/12/13 08:16:18;;;;;;;62.45;29.30;;;7.30;99.90;;;;;;4905051;29;20087;-86
2020/12/13 08:18:49;;;;;;;58.85;28.73;;;7.20;99.90;;;;;;4900296;29;20028;-86
2020/12/13 08:21:25;;;;;;;47.67;23.83;;;7.30;99.90;;;;;;4900606;29;20537;-86
2020/12/13 08:23:55;;;;;;;76.57;34.03;;;7.30;99.90;;;;;;4917412;29;20032;-87
2020/12/13 08:26:21;;;;;;;60.85;28.25;;;7.20;99.90;;;;;;4900244;29;20047;-86
2020/12/13 08:28:48;;;;;;;67.55;32.03;;;7.30;99.90;;;;;;4916093;29;20028;-86
2020/12/13 08:31:18;;;;;;;49.38;26.95;;;7.30;99.90;;;;;;4900535;29;20467;-86
2020/12/13 08:33:44;;;;;;;59.85;30.30;;;7.30;99.90;;;;;;4917427;29;20024;-85
2020/12/13 08:36:20;;;;;;;53.60;32.33;;;7.40;99.90;;;;;;4900516;29;20163;-85
2020/12/13 08:39:03;;;;;;;60.70;32.45;;;7.50;99.90;;;;;;4884353;29;20454;-84
2020/12/13 08:41:29;;;;;;;43.20;26.95;;;7.50;99.90;;;;;;4917600;29;20482;-87
2020/12/13 08:43:55;;;;;;;42.58;23.52;;;7.60;99.90;;;;;;4884346;29;20020;-87
2020/12/13 08:46:37;;;;;;;47.55;24.92;;;7.50;99.90;;;;;;4900623;29;20035;-86
2020/12/13 08:49:04;;;;;;;49.78;23.83;;;7.40;99.90;;;;;;4917358;29;20097;-86
2020/12/13 08:51:30;;;;;;;35.83;20.23;;;7.40;99.90;;;;;;4900358;29;20483;-85
2020/12/13 08:53:57;;;;;;;44.13;23.23;;;7.40;99.90;;;;;;4899849;29;20028;-87
2020/12/13 08:56:34;;;;;;;36.92;21.05;;;7.40;99.90;;;;;;4900729;29;20020;-85
2020/12/13 08:59:01;;;;;;;44.97;19.65;;;7.40;99.90;;;;;;4901246;29;20024;-85
2020/12/13 09:01:31;;;;;;;39.50;21.02;;;7.40;99.90;;;;;;4918204;29;20032;-85
2020/12/13 09:03:57;;;;;;;40.92;19.95;;;7.30;99.90;;;;;;4902064;29;20080;-87
2020/12/13 09:06:26;;;;;;;46.10;21.85;;;7.30;99.90;;;;;;4935096;29;20035;-85
2020/12/13 09:08:52;;;;;;;51.55;22.17;;;7.30;99.90;;;;;;4905291;29;20036;-86
2020/12/13 09:11:32;;;;;;;37.22;18.92;;;7.30;99.90;;;;;;4905786;29;20036;-85
2020/12/13 09:13:58;;;;;;;41.55;18.83;;;7.30;99.90;;;;;;4906046;29;20039;-84
2020/12/13 09:16:29;;;;;;;39.05;20.27;;;7.30;99.90;;;;;;4889530;29;20059;-84
2020/12/13 09:19:12;;;;;;;37.03;17.83;;;7.30;99.90;;;;;;4905069;29;20451;-86
2020/12/13 09:21:41;;;;;;;32.53;16.35;;;7.40;99.90;;;;;;4903751;29;20052;-85
2020/12/13 09:24:07;;;;;;;34.90;17.75;;;7.50;99.90;;;;;;4904533;29;20028;-84
2020/12/13 09:26:33;;;;;;;34.38;17.10;;;7.40;99.90;;;;;;4888430;29;20434;-86
2020/12/13 09:28:58;;;;;;;39.95;19.58;;;7.60;99.90;;;;;;4903707;29;20032;-85
2020/12/13 09:31:24;;;;;;;40.95;18.55;;;7.70;99.90;;;;;;4887869;29;20039;-84
2020/12/13 09:33:49;;;;;;;37.83;17.50;;;7.60;99.90;;;;;;4925828;29;20048;-86
2020/12/13 09:36:15;;;;;;;43.88;15.88;;;7.60;99.90;;;;;;4904583;29;20386;-85
2020/12/13 09:38:41;;;;;;;36.67;16.83;;;7.60;99.90;;;;;;4890695;29;20031;-85
2020/12/13 09:41:06;;;;;;;33.50;15.82;;;7.60;99.90;;;;;;4887917;29;20107;-82
2020/12/13 09:43:32;;;;;;;36.78;16.52;;;7.60;99.90;;;;;;4887713;29;20028;-83
2020/12/13 09:45:57;;;;;;;39.00;16.17;;;7.60;99.90;;;;;;4903299;29;20076;-84
2020/12/13 09:48:23;;;;;;;32.97;16.25;;;7.60;99.90;;;;;;4888351;29;20048;-84
2020/12/13 09:50:49;;;;;;;43.13;16.60;;;7.70;99.90;;;;;;4903651;29;20463;-86
2020/12/13 09:53:14;;;;;;;34.40;14.65;;;7.70;99.90;;;;;;4904034;29;20482;-84
2020/12/13 09:55:40;;;;;;;31.40;15.05;;;7.60;99.90;;;;;;4907008;29;20459;-84
2020/12/13 09:58:06;;;;;;;32.08;14.00;;;7.60;99.90;;;;;;4889477;29;20032;-85
2020/12/13 10:00:31;;;;;;;38.55;14.45;;;7.60;99.90;;;;;;4888292;29;20036;-83
2020/12/13 10:02:57;;;;;;;37.58;13.57;;;7.60;99.90;;;;;;4904130;29;20526;-84
2020/12/13 10:05:37;;;;;;;30.75;14.65;;;7.60;99.90;;;;;;4888506;29;20036;-85
2020/12/13 10:10:48;;;;;;;28.88;12.73;;;7.70;99.90;;;;;;4907460;29;20086;-85
2020/12/13 10:13:13;;;;;;;25.23;12.43;;;7.80;99.90;;;;;;4935667;29;20036;-82
2020/12/13 10:15:42;;;;;;;42.83;14.20;;;7.70;99.90;;;;;;4893268;29;20033;-86
2020/12/13 10:18:08;;;;;;;31.95;12.80;;;7.70;99.90;;;;;;4918262;29;20044;-83
2020/12/13 10:20:40;;;;;;;26.23;12.95;;;7.70;99.90;;;;;;4920869;29;20394;-83
2020/12/13 10:23:05;;;;;;;30.63;13.70;;;7.70;99.90;;;;;;4905304;29;20092;-83
2020/12/13 10:25:31;;;;;;;36.67;13.68;;;7.70;99.90;;;;;;4888228;29;20063;-83
2020/12/13 10:27:57;;;;;;;30.25;11.48;;;7.70;99.90;;;;;;4887330;29;20046;-83
2020/12/13 10:30:23;;;;;;;25.42;11.65;;;7.70;99.90;;;;;;4904685;29;20032;-86
2020/12/13 10:32:49;;;;;;;36.92;12.13;;;7.70;99.90;;;;;;4902353;29;20466;-85
2020/12/13 10:35:20;;;;;;;34.63;13.95;;;7.70;99.90;;;;;;4898348;29;20458;-85
2020/12/13 10:37:45;;;;;;;28.08;12.43;;;7.70;99.90;;;;;;4907991;29;20024;-83
2020/12/13 10:40:11;;;;;;;22.25;11.90;;;7.70;99.90;;;;;;4908573;29;20036;-84
2020/12/13 10:42:40;;;;;;;25.55;12.23;;;7.70;99.90;;;;;;4869059;29;20032;-85
2020/12/13 10:45:05;;;;;;;26.63;12.27;;;7.70;99.90;;;;;;4901234;29;20044;-84
2020/12/13 10:47:31;;;;;;;32.50;13.13;;;7.70;99.90;;;;;;4900348;29;20032;-84
2020/12/13 10:49:57;;;;;;;35.13;13.27;;;7.70;99.90;;;;;;4883396;29;20131;-84
2020/12/13 10:52:25;;;;;;;30.67;13.35;;;7.70;99.90;;;;;;4852522;29;20029;-84
2020/12/13 10:54:51;;;;;;;34.78;13.85;;;7.80;99.90;;;;;;4883568;29;20482;-84
2020/12/13 10:57:18;;;;;;;25.95;12.23;;;7.70;99.90;;;;;;4867962;29;20057;-85
2020/12/13 10:59:44;;;;;;;32.00;11.93;;;7.80;99.90;;;;;;4868501;29;20494;-84
2020/12/13 11:02:10;;;;;;;32.17;12.77;;;7.80;99.90;;;;;;4852470;29;20120;-84
2020/12/13 11:04:36;;;;;;;22.23;11.23;;;7.90;99.90;;;;;;4852690;29;20385;-85
2020/12/13 11:07:02;;;;;;;27.58;12.80;;;8.00;99.90;;;;;;4867591;29;20028;-84
2020/12/13 11:09:27;;;;;;;25.30;11.50;;;8.00;99.90;;;;;;4867701;29;20033;-86
2020/12/13 11:11:53;;;;;;;27.73;12.27;;;8.10;99.90;;;;;;4868707;29;20118;-85
2020/12/13 11:14:18;;;;;;;29.95;12.48;;;8.00;99.90;;;;;;4868495;29;20476;-83
2020/12/13 11:16:47;;;;;;;32.45;14.45;;;7.90;99.90;;;;;;4869135;29;20035;-84
2020/12/13 11:19:13;;;;;;;24.90;12.45;;;7.90;99.90;;;;;;4886308;29;20032;-83
2020/12/13 11:21:45;;;;;;;30.38;14.45;;;7.90;99.90;;;;;;4886200;29;20032;-86
2020/12/13 11:24:12;;;;;;;33.75;14.02;;;7.90;99.90;;;;;;4868953;29;20046;-85
2020/12/13 11:26:38;;;;;;;31.38;15.70;;;7.90;99.90;;;;;;4887093;29;20024;-85
2020/12/13 11:29:03;;;;;;;41.08;18.13;;;7.90;99.90;;;;;;4869735;29;20123;-87
2020/12/13 11:31:29;;;;;;;32.97;15.63;;;7.90;99.90;;;;;;4869164;29;20025;-86
2020/12/13 11:33:55;;;;;;;33.00;17.08;;;7.90;99.90;;;;;;4853654;29;20033;-85
2020/12/13 11:36:22;;;;;;;33.67;17.83;;;7.90;99.90;;;;;;4869600;29;20039;-87
2020/12/13 11:38:47;;;;;;;35.65;17.00;;;7.90;99.90;;;;;;4868620;29;20056;-86
2020/12/13 11:41:13;;;;;;;37.65;17.58;;;7.80;99.90;;;;;;4868866;29;20064;-85
2020/12/13 11:43:38;;;;;;;43.50;19.00;;;7.90;99.90;;;;;;4900732;29;20096;-85
2020/12/13 11:46:04;;;;;;;38.10;20.02;;;7.90;99.90;;;;;;4868656;29;20464;-85
2020/12/13 11:48:30;;;;;;;39.83;19.60;;;7.90;99.90;;;;;;4867232;29;20104;-84
2020/12/13 11:50:55;;;;;;;31.52;18.30;;;7.90;99.90;;;;;;4882372;29;20052;-84
2020/12/13 11:53:22;;;;;;;37.13;18.63;;;7.90;99.90;;;;;;4868948;29;20040;-85
2020/12/13 11:55:48;;;;;;;42.08;20.13;;;7.90;99.90;;;;;;4871949;29;20045;-84
2020/12/13 11:58:16;;;;;;;30.83;15.57;;;7.90;99.90;;;;;;4856795;29;20502;-85
2020/12/13 12:00:41;;;;;;;40.45;18.10;;;7.90;99.90;;;;;;4868957;29;20041;-85
2020/12/13 12:03:07;;;;;;;32.38;16.27;;;7.90;99.90;;;;;;4867417;29;20390;-85
2020/12/13 12:05:33;;;;;;;25.45;15.45;;;8.00;99.90;;;;;;4867211;29;20033;-84
2020/12/13 12:07:58;;;;;;;32.67;16.23;;;7.90;99.90;;;;;;4852980;29;20032;-85
2020/12/13 12:10:24;;;;;;;32.72;15.07;;;7.80;99.90;;;;;;4900955;29;20044;-84
2020/12/13 12:12:50;;;;;;;26.48;14.27;;;7.80;99.90;;;;;;4869584;29;20032;-85
2020/12/13 12:15:15;;;;;;;26.45;14.05;;;7.80;99.90;;;;;;4868946;29;20507;-85
2020/12/13 12:17:41;;;;;;;31.13;12.85;;;7.80;99.90;;;;;;4885068;29;20028;-86
2020/12/13 12:20:07;;;;;;;27.67;14.02;;;7.70;99.90;;;;;;4888640;29;20107;-85
2020/12/13 12:22:36;;;;;;;24.38;13.63;;;7.70;99.90;;;;;;4869398;29;20059;-85
2020/12/13 12:25:01;;;;;;;23.83;11.25;;;7.70;99.90;;;;;;4858276;29;20595;-85
2020/12/13 12:27:27;;;;;;;24.80;10.63;;;7.80;99.90;;;;;;4906192;29;20057;-85
2020/12/13 12:29:53;;;;;;;21.25;11.27;;;7.80;99.90;;;;;;4878179;29;20064;-84
2020/12/13 12:32:18;;;;;;;22.55;10.75;;;7.70;99.90;;;;;;4878063;29;20029;-84
2020/12/13 12:34:44;;;;;;;20.85;11.05;;;7.80;99.90;;;;;;4881321;29;20048;-85
2020/12/13 12:37:10;;;;;;;20.10;10.30;;;7.80;99.90;;;;;;4872247;29;20020;-86
2020/12/13 12:39:35;;;;;;;23.70;11.15;;;7.80;99.90;;;;;;4890097;29;20020;-85
2020/12/13 12:42:01;;;;;;;23.88;10.93;;;7.70;99.90;;;;;;4890210;29;20097;-84
2020/12/13 12:44:26;;;;;;;16.60;9.20;;;7.70;99.90;;;;;;4890656;29;20016;-84
2020/12/13 12:46:55;;;;;;;22.38;10.05;;;7.80;99.90;;;;;;4905763;29;20031;-85
2020/12/13 12:49:20;;;;;;;23.48;10.38;;;7.80;99.90;;;;;;4889639;29;20060;-84
2020/12/13 12:51:46;;;;;;;16.75;9.88;;;7.80;99.90;;;;;;4890807;29;20088;-86